Litchfield, NE (68852)

6:16 PM CDT on July 24, 2016 (GMT -0500)
Deeds Hazard | | Change Station

Elev 2103 ft 41.09 °N, 99.09 °W | Updated 0 second ago

Clear
Clear
85.6 °F
Feels Like 88 °F
N
3.4
Wind Variable Wind from NW
Gusts 4.9 mph

Today
High -- | Low -- °F
--% Chance of Precip.
Yesterday
High -- | Low -- °F
Precip. -- in
Pressure 30.03 in
Visibility 10.0 miles
Clouds Clear
Heat Index 88 °F
Dew Point 66 °F
Humidity 51%
Rainfall 0.00 in
Snow Depth Not available.
6:24 AM 9:00 PM
Waning Gibbous, 72% visible
METAR KODX 242253Z AUTO 08008KT 10SM CLR 28/16 A3006 RMK AO2 SLP167 T02830161 $
Pressure 30.03 in
Visibility 10.0 miles
Clouds Clear
Heat Index 88 °F
Dew Point 66 °F
Humidity 51%
Rainfall 0.00 in
Snow Depth Not available.
6:24 AM 9:00 PM
Waning Gibbous, 72% visible
METAR KODX 242253Z AUTO 08008KT 10SM CLR 28/16 A3006 RMK AO2 SLP167 T02830161 $

10-Day Weather Forecast

Almanac

Astronomy

Jul. 24, 2016 Rise Set
Actual Time
Civil Twilight
Nautical Twilight
Astronomical Twilight
Moon
Length of Visible Light
Length of Day
Tomorrow will be .
, % of the Moon is Illuminated

Today's Extremes

State Highs State Lows

Community

WunderPhotos

Upload Photos

1,927,205 photos uploaded!

WunderBlog® & News

Nearby

Air Quality

  Air Quality AQ Index Pollutant
Not available.

Snow Depth

Station Depth Elevation

Earthquake Activity

City Distance Mag. Time & Date
Minimum magnitude displayed is 2.5.

Coastal Water Temperatures

Place Temperature

Stations

Nearby Weather Stations

Station Location Temp. Windchill Dew Point Humidity Wind Precip. Elev Updated Type
                   

Watches & Warnings

There are currently no watches in effect.